Time;durP1;ratioP1;P1;durP2;ratioP2;P2;SDS_P1;SDS_P2;PMS_P1;PMS_P2;Temp;Humidity;BMP_temperature;BMP_pressure;BME280_temperature;BME280_humidity;BME280_pressure;Samples;Min_cycle;Max_cycle;Signal;HPM_P1;HPM_P2
2022/04/19 00:00:10;;;;;;;8.05;7.10;;;7.70;99.90;;;;;;4756286;30;20048;-69
2022/04/19 00:02:36;;;;;;;7.50;6.75;;;7.60;99.90;;;;;;4755611;30;20559;-70
2022/04/19 00:05:03;;;;;;;8.55;7.25;;;7.60;99.90;;;;;;4771738;30;20048;-69
2022/04/19 00:07:29;;;;;;;10.57;7.30;;;7.50;99.90;;;;;;4771955;30;20052;-70
2022/04/19 00:09:54;;;;;;;8.52;7.30;;;7.50;99.90;;;;;;4771839;30;20040;-69
2022/04/19 00:12:20;;;;;;;8.70;7.00;;;7.50;99.90;;;;;;4770152;30;20490;-69
2022/04/19 00:14:47;;;;;;;9.80;7.20;;;7.40;99.90;;;;;;4740384;30;20055;-70
2022/04/19 00:17:13;;;;;;;11.65;7.72;;;7.40;99.90;;;;;;4755864;30;20139;-69
2022/04/19 00:19:39;;;;;;;7.72;6.68;;;7.40;99.90;;;;;;4755167;30;20090;-69
2022/04/19 00:22:04;;;;;;;8.50;6.85;;;7.30;99.90;;;;;;4756042;30;20068;-69
2022/04/19 00:24:30;;;;;;;9.70;7.57;;;7.30;99.90;;;;;;4740611;30;20067;-69
2022/04/19 00:26:56;;;;;;;10.02;7.30;;;7.30;99.90;;;;;;4771737;30;20109;-70
2022/04/19 00:29:21;;;;;;;9.00;7.13;;;7.30;99.90;;;;;;4752124;30;20090;-69
2022/04/19 00:31:47;;;;;;;8.18;7.20;;;7.30;99.90;;;;;;4752904;30;20060;-70
2022/04/19 00:34:12;;;;;;;11.88;7.85;;;7.20;99.90;;;;;;4754894;30;20561;-69
2022/04/19 00:36:38;;;;;;;9.15;7.65;;;7.20;99.90;;;;;;4755540;30;20056;-69
2022/04/19 00:39:04;;;;;;;8.85;7.68;;;7.20;99.90;;;;;;4765533;30;20439;-69
2022/04/19 00:41:30;;;;;;;10.23;8.05;;;7.10;99.90;;;;;;4771432;30;20101;-69
2022/04/19 00:43:55;;;;;;;9.05;7.35;;;7.10;99.90;;;;;;4770778;30;20067;-69
2022/04/19 00:46:21;;;;;;;11.40;8.43;;;7.10;99.90;;;;;;4755103;30;20066;-69
2022/04/19 00:48:47;;;;;;;9.82;8.20;;;7.00;99.90;;;;;;4754791;30;20157;-69
2022/04/19 00:51:13;;;;;;;11.50;8.18;;;7.00;99.90;;;;;;4755271;30;20059;-69
2022/04/19 00:53:42;;;;;;;13.38;8.95;;;7.00;99.90;;;;;;4751991;30;20063;-69
2022/04/19 00:56:07;;;;;;;10.05;8.52;;;6.90;99.90;;;;;;4769997;30;20070;-69
2022/04/19 00:58:33;;;;;;;14.32;9.73;;;6.90;99.90;;;;;;4770728;30;20529;-69
2022/04/19 01:01:00;;;;;;;12.60;9.65;;;6.90;99.90;;;;;;4755521;30;20055;-70
2022/04/19 01:03:25;;;;;;;12.95;9.07;;;7.00;99.90;;;;;;4754895;30;20135;-69
2022/04/19 01:05:53;;;;;;;11.10;9.18;;;7.00;99.90;;;;;;4740636;30;20138;-70
2022/04/19 01:08:20;;;;;;;11.18;8.82;;;6.90;99.90;;;;;;4770407;30;20063;-69
2022/04/19 01:10:46;;;;;;;11.75;8.88;;;6.90;99.90;;;;;;4770274;30;20446;-69
2022/04/19 01:13:18;;;;;;;12.73;9.23;;;6.90;99.90;;;;;;4769990;30;20135;-69
2022/04/19 01:15:48;;;;;;;12.82;10.00;;;6.90;99.90;;;;;;4754060;30;20059;-69
2022/04/19 01:18:15;;;;;;;10.52;9.15;;;6.90;99.90;;;;;;4754751;30;20059;-70
2022/04/19 01:20:41;;;;;;;13.85;10.63;;;6.80;99.90;;;;;;4770944;30;20281;-69
2022/04/19 01:23:07;;;;;;;13.63;9.25;;;6.70;99.90;;;;;;4770699;30;20068;-69
2022/04/19 01:25:33;;;;;;;11.98;9.65;;;6.70;99.90;;;;;;4739299;30;20055;-69
2022/04/19 01:27:59;;;;;;;14.00;10.30;;;6.70;99.90;;;;;;4753060;30;20070;-69
2022/04/19 01:30:25;;;;;;;12.27;9.57;;;6.60;99.90;;;;;;4770015;30;20105;-69
2022/04/19 01:32:51;;;;;;;12.48;9.70;;;6.50;99.90;;;;;;4754860;30;20137;-69
2022/04/19 01:35:19;;;;;;;14.45;10.30;;;6.60;99.90;;;;;;4769882;30;20350;-69
2022/04/19 01:37:47;;;;;;;12.60;9.27;;;6.60;99.90;;;;;;4753101;30;20069;-69
2022/04/19 01:40:16;;;;;;;12.05;8.98;;;6.50;99.90;;;;;;4754179;30;20127;-70
2022/04/19 01:42:49;;;;;;;12.38;9.43;;;6.50;99.90;;;;;;4739322;30;20091;-69
2022/04/19 01:45:16;;;;;;;11.98;9.13;;;6.40;99.90;;;;;;4754346;30;20571;-69
2022/04/19 01:47:45;;;;;;;14.73;9.90;;;6.40;99.90;;;;;;4754202;30;20055;-70
2022/04/19 01:50:13;;;;;;;11.90;9.38;;;6.30;99.90;;;;;;4754597;30;20453;-70
2022/04/19 01:52:39;;;;;;;12.25;9.23;;;6.30;99.90;;;;;;4769543;30;20128;-69
2022/04/19 01:55:07;;;;;;;10.52;8.52;;;6.30;99.90;;;;;;4753945;30;20074;-69
2022/04/19 01:57:33;;;;;;;13.40;9.65;;;6.30;99.90;;;;;;4753694;30;20408;-70
2022/04/19 01:59:59;;;;;;;11.48;9.10;;;6.20;99.90;;;;;;4754485;30;20457;-69
2022/04/19 02:02:25;;;;;;;9.75;7.97;;;6.20;99.90;;;;;;4753249;30;20094;-70
2022/04/19 02:04:53;;;;;;;11.55;8.75;;;6.20;99.90;;;;;;4768751;30;20139;-70
2022/04/19 02:07:19;;;;;;;12.18;8.68;;;6.20;99.90;;;;;;4752977;30;20533;-70
2022/04/19 02:09:44;;;;;;;10.75;8.63;;;6.10;99.90;;;;;;4754425;30;20087;-70
2022/04/19 02:12:10;;;;;;;9.25;8.00;;;6.20;99.90;;;;;;4753975;30;20064;-70
2022/04/19 02:14:41;;;;;;;12.90;8.77;;;6.20;99.90;;;;;;4753410;30;20089;-70
2022/04/19 02:17:10;;;;;;;11.95;8.70;;;6.20;99.90;;;;;;4739396;30;20128;-70
2022/04/19 02:19:39;;;;;;;13.95;8.95;;;6.10;99.90;;;;;;4753633;30;20067;-70
2022/04/19 02:22:06;;;;;;;12.15;8.25;;;6.10;99.90;;;;;;4766317;30;20105;-70
2022/04/19 02:24:33;;;;;;;12.43;9.15;;;6.00;99.90;;;;;;4752509;30;20043;-69
2022/04/19 02:26:59;;;;;;;12.55;8.90;;;6.00;99.90;;;;;;4753758;30;20173;-71
2022/04/19 02:29:25;;;;;;;10.48;8.32;;;6.00;99.90;;;;;;4769178;30;20115;-69
2022/04/19 02:31:53;;;;;;;10.50;8.13;;;5.90;99.90;;;;;;4753439;30;20047;-69
2022/04/19 02:34:19;;;;;;;10.50;8.15;;;5.90;99.90;;;;;;4739102;30;20159;-70
2022/04/19 02:36:46;;;;;;;11.80;8.57;;;5.90;99.90;;;;;;4753789;30;20103;-70
2022/04/19 02:39:11;;;;;;;11.55;8.45;;;5.90;99.90;;;;;;4752994;30;20058;-70
2022/04/19 02:41:37;;;;;;;11.75;8.15;;;5.90;99.90;;;;;;4753748;30;20056;-70
2022/04/19 02:44:06;;;;;;;10.77;8.00;;;5.90;99.90;;;;;;4750996;30;20505;-70
2022/04/19 02:46:33;;;;;;;9.48;7.38;;;5.80;99.90;;;;;;4754249;30;20123;-70
2022/04/19 02:49:04;;;;;;;10.95;8.65;;;5.80;99.90;;;;;;4769725;30;20101;-70
2022/04/19 02:51:32;;;;;;;9.80;8.10;;;5.80;99.90;;;;;;4769471;30;20126;-69
2022/04/19 02:53:57;;;;;;;10.20;7.90;;;5.70;99.90;;;;;;4753370;30;20066;-69
2022/04/19 02:56:23;;;;;;;11.38;9.07;;;5.70;99.90;;;;;;4752888;30;20067;-70
2022/04/19 02:58:48;;;;;;;10.15;7.95;;;5.60;99.90;;;;;;4752778;30;20139;-70
2022/04/19 03:01:15;;;;;;;9.52;8.10;;;5.60;99.90;;;;;;4769663;30;20068;-69
2022/04/19 03:03:40;;;;;;;13.43;8.52;;;5.60;99.90;;;;;;4753364;30;20060;-70
2022/04/19 03:06:07;;;;;;;9.65;7.20;;;5.60;99.90;;;;;;4753945;30;20081;-69
2022/04/19 03:08:34;;;;;;;10.02;8.10;;;5.60;99.90;;;;;;4752656;30;20056;-70
2022/04/19 03:11:00;;;;;;;9.05;6.82;;;5.50;99.90;;;;;;4753109;30;20063;-70
2022/04/19 03:13:31;;;;;;;10.18;7.75;;;5.50;99.90;;;;;;4754200;30;20185;-70
2022/04/19 03:15:57;;;;;;;8.40;6.93;;;5.50;99.90;;;;;;4762773;30;20051;-69
2022/04/19 03:18:22;;;;;;;8.77;7.32;;;5.40;99.90;;;;;;4756820;30;20058;-69
2022/04/19 03:20:48;;;;;;;9.48;7.45;;;5.40;99.90;;;;;;4756988;30;20066;-70
2022/04/19 03:28:45;;;;;;;10.15;7.90;;;5.30;99.90;;;;;;4739466;30;20148;-69
2022/04/19 03:31:12;;;;;;;11.35;7.80;;;5.20;99.90;;;;;;4754979;30;20060;-70
2022/04/19 03:33:39;;;;;;;11.80;8.30;;;5.20;99.90;;;;;;4754431;30;20495;-69
2022/04/19 03:36:05;;;;;;;10.52;7.93;;;5.20;99.90;;;;;;4753593;30;20163;-70
2022/04/19 03:38:31;;;;;;;10.15;8.18;;;5.20;99.90;;;;;;4758507;30;20044;-70
2022/04/19 03:40:57;;;;;;;11.32;8.23;;;5.20;99.90;;;;;;4756185;30;20109;-70
2022/04/19 03:43:23;;;;;;;10.27;8.07;;;5.10;99.90;;;;;;4759531;30;20063;-69
2022/04/19 03:45:49;;;;;;;11.48;8.50;;;5.20;99.90;;;;;;4754500;30;20121;-69
2022/04/19 03:48:14;;;;;;;12.55;8.98;;;5.20;99.90;;;;;;4738380;30;20100;-70
2022/04/19 03:50:41;;;;;;;13.40;8.15;;;5.30;99.90;;;;;;4738414;30;20051;-70
2022/04/19 03:53:07;;;;;;;10.85;8.38;;;5.40;99.90;;;;;;4753978;30;20456;-69
2022/04/19 03:55:33;;;;;;;14.15;9.18;;;5.50;99.90;;;;;;4771781;30;20060;-69
2022/04/19 03:57:58;;;;;;;10.88;8.73;;;5.50;99.90;;;;;;4754572;30;20117;-70
2022/04/19 04:00:25;;;;;;;11.32;8.20;;;5.60;99.90;;;;;;4771672;30;20098;-70
2022/04/19 04:02:50;;;;;;;17.60;8.88;;;5.70;99.90;;;;;;4772025;30;20058;-69
2022/04/19 04:05:17;;;;;;;13.02;9.05;;;5.70;99.90;;;;;;4755944;30;20064;-69
2022/04/19 04:07:42;;;;;;;11.23;8.98;;;5.80;99.90;;;;;;4771391;30;20150;-69
2022/04/19 04:10:09;;;;;;;11.00;8.48;;;5.90;99.90;;;;;;4772021;30;20549;-70
2022/04/19 04:12:35;;;;;;;12.15;8.80;;;5.90;99.90;;;;;;4739896;30;20672;-70
2022/04/19 04:15:01;;;;;;;11.20;8.80;;;5.90;99.90;;;;;;4756187;30;20048;-69
2022/04/19 04:17:27;;;;;;;10.95;8.43;;;5.90;99.90;;;;;;4755405;30;20490;-69
2022/04/19 04:19:52;;;;;;;12.15;8.02;;;5.90;99.90;;;;;;4771614;30;20091;-70
2022/04/19 04:22:18;;;;;;;12.50;8.95;;;5.90;99.90;;;;;;4771344;30;20114;-70
2022/04/19 04:24:44;;;;;;;12.35;8.85;;;5.90;99.90;;;;;;4769732;30;20055;-69
2022/04/19 04:27:09;;;;;;;14.35;8.85;;;6.00;99.90;;;;;;4755864;30;20066;-69
2022/04/19 04:29:36;;;;;;;11.30;8.32;;;5.90;99.90;;;;;;4754798;30;20060;-70
2022/04/19 04:32:03;;;;;;;15.70;8.60;;;6.00;99.90;;;;;;4771603;30;20142;-70
2022/04/19 04:34:28;;;;;;;10.52;8.52;;;6.00;99.90;;;;;;4755112;30;20486;-69
2022/04/19 04:36:54;;;;;;;14.07;8.68;;;6.00;99.90;;;;;;4755497;30;20062;-70
2022/04/19 04:39:20;;;;;;;14.20;8.85;;;6.00;99.90;;;;;;4770251;30;20056;-71
2022/04/19 04:41:45;;;;;;;13.77;8.30;;;6.00;99.90;;;;;;4741026;30;20060;-70
2022/04/19 04:44:11;;;;;;;10.60;8.93;;;6.00;99.90;;;;;;4770611;30;20134;-70
2022/04/19 04:49:36;;;;;;;11.48;8.57;;;6.00;99.90;;;;;;4770855;30;20627;-70
2022/04/19 04:52:05;;;;;;;11.23;8.13;;;6.00;99.90;;;;;;4771374;30;20083;-70
2022/04/19 04:54:31;;;;;;;15.18;8.93;;;5.90;99.90;;;;;;4753976;30;20098;-69
2022/04/19 04:56:56;;;;;;;13.40;9.10;;;6.00;99.90;;;;;;4771154;30;20076;-69
2022/04/19 04:59:22;;;;;;;11.43;8.85;;;5.90;99.90;;;;;;4770390;30;20075;-69
2022/04/19 05:01:48;;;;;;;11.85;9.27;;;5.90;99.90;;;;;;4751826;30;20469;-69
2022/04/19 05:04:13;;;;;;;12.20;8.25;;;6.00;99.90;;;;;;4751545;30;20124;-69
2022/04/19 05:06:40;;;;;;;12.82;9.48;;;5.90;99.90;;;;;;4770271;30;20054;-70
2022/04/19 05:09:05;;;;;;;12.15;8.82;;;5.90;99.90;;;;;;4769946;30;20067;-70
2022/04/19 05:11:31;;;;;;;11.35;9.13;;;5.90;99.90;;;;;;4754810;30;20070;-69
2022/04/19 05:13:57;;;;;;;13.07;8.65;;;6.00;99.90;;;;;;4753719;30;20100;-70
2022/04/19 05:16:23;;;;;;;12.38;8.73;;;6.00;99.90;;;;;;4754938;30;20060;-71
2022/04/19 05:18:49;;;;;;;12.45;7.90;;;6.10;99.90;;;;;;4754894;30;20409;-70
2022/04/19 05:21:14;;;;;;;10.15;8.63;;;6.10;99.90;;;;;;4755240;30;20063;-70
2022/04/19 05:23:43;;;;;;;11.95;8.80;;;6.10;99.90;;;;;;4754298;30;20513;-70
2022/04/19 05:26:14;;;;;;;10.32;8.65;;;6.10;99.90;;;;;;4770798;30;20051;-70
2022/04/19 05:28:40;;;;;;;10.50;8.75;;;6.30;99.90;;;;;;4739375;30;20127;-71
2022/04/19 05:31:06;;;;;;;11.48;9.18;;;6.60;99.90;;;;;;4753611;30;20154;-71
2022/04/19 05:33:40;;;;;;;11.75;8.77;;;7.00;99.90;;;;;;4751934;30;20066;-70
2022/04/19 05:39:40;;;;;;;12.38;8.25;;;7.50;99.90;;;;;;4755360;30;20138;-71
2022/04/19 05:45:32;;;;;;;10.98;8.55;;;7.80;99.90;;;;;;4749152;30;20593;-71
2022/04/19 05:48:07;;;;;;;11.32;9.05;;;7.90;99.90;;;;;;4738193;30;20967;-71
2022/04/19 05:50:32;;;;;;;13.60;9.02;;;8.20;99.90;;;;;;4758131;30;20518;-70
2022/04/19 05:53:11;;;;;;;11.20;9.43;;;9.00;99.90;;;;;;4752809;30;20083;-70
2022/04/19 05:55:39;;;;;;;12.18;9.32;;;9.90;99.90;;;;;;4747767;30;20071;-71
2022/04/19 05:58:35;;;;;;;15.52;9.20;;;10.70;99.90;;;;;;4744446;30;20131;-70
2022/04/19 06:01:01;;;;;;;12.85;9.90;;;11.30;99.90;;;;;;4750165;30;20402;-71
2022/04/19 06:07:13;;;;;;;11.27;9.65;;;10.00;99.90;;;;;;4749072;30;20051;-71
2022/04/19 06:09:39;;;;;;;14.88;9.13;;;9.30;99.90;;;;;;4739288;30;20505;-71
2022/04/19 06:12:05;;;;;;;10.77;9.25;;;9.00;99.90;;;;;;4749303;30;20098;-71
2022/04/19 06:14:31;;;;;;;11.75;9.18;;;8.70;99.90;;;;;;4752391;30;20056;-70
2022/04/19 06:16:57;;;;;;;12.98;9.48;;;8.70;99.90;;;;;;4767522;30;20105;-71
2022/04/19 06:19:23;;;;;;;12.73;9.05;;;8.60;99.90;;;;;;4752768;30;20048;-70
2022/04/19 06:21:49;;;;;;;12.57;9.02;;;8.60;99.90;;;;;;4752969;30;20133;-71
2022/04/19 06:24:14;;;;;;;10.98;9.07;;;8.60;99.90;;;;;;4753402;30;20078;-71
2022/04/19 06:26:40;;;;;;;10.80;8.65;;;8.60;99.90;;;;;;4751408;30;20490;-70
2022/04/19 06:29:06;;;;;;;11.23;8.63;;;8.70;99.90;;;;;;4746493;30;20079;-70
2022/04/19 06:31:32;;;;;;;11.43;9.20;;;8.70;99.90;;;;;;4752932;30;20545;-70
2022/04/19 06:33:58;;;;;;;10.20;8.68;;;8.80;99.90;;;;;;4752616;30;20047;-68
2022/04/19 06:36:23;;;;;;;12.65;9.23;;;8.90;99.90;;;;;;4751576;30;20074;-70
2022/04/19 06:38:49;;;;;;;12.07;9.05;;;9.00;99.90;;;;;;4752502;30;20086;-70
2022/04/19 06:41:15;;;;;;;11.55;9.10;;;9.10;99.90;;;;;;4768563;30;20143;-70
2022/04/19 06:43:40;;;;;;;10.27;8.73;;;9.20;99.90;;;;;;4751789;30;20051;-70
2022/04/19 06:46:08;;;;;;;10.40;9.23;;;9.30;99.90;;;;;;4722892;30;20056;-70
2022/04/19 06:48:34;;;;;;;13.95;8.73;;;9.40;99.90;;;;;;4757171;30;20064;-71
2022/04/19 06:51:00;;;;;;;12.30;8.98;;;9.60;99.90;;;;;;4756976;30;20127;-70
2022/04/19 06:53:30;;;;;;;10.85;8.98;;;9.60;99.90;;;;;;4756827;30;20066;-70
2022/04/19 06:55:56;;;;;;;11.57;8.63;;;9.70;99.90;;;;;;4770357;30;20051;-71
2022/04/19 06:58:22;;;;;;;10.55;8.32;;;9.80;99.90;;;;;;4757241;30;20063;-71
2022/04/19 07:00:47;;;;;;;12.02;8.80;;;9.90;99.90;;;;;;4756705;30;20057;-71
2022/04/19 07:03:13;;;;;;;12.05;8.75;;;10.10;99.90;;;;;;4756304;30;20517;-71
2022/04/19 07:05:39;;;;;;;10.35;8.10;;;10.20;99.90;;;;;;4756904;30;20071;-71
2022/04/19 07:08:05;;;;;;;10.00;8.50;;;10.30;99.90;;;;;;4772553;30;20044;-70
2022/04/19 07:10:31;;;;;;;11.77;8.25;;;10.40;99.90;;;;;;4756308;30;20055;-71
2022/04/19 07:12:56;;;;;;;12.15;7.97;;;10.50;99.90;;;;;;4754882;30;20079;-71
2022/04/19 07:15:22;;;;;;;9.57;7.63;;;10.70;99.90;;;;;;4753608;30;20085;-71
2022/04/19 07:17:48;;;;;;;10.80;7.25;;;10.80;99.90;;;;;;4739382;30;20075;-72
2022/04/19 07:28:33;;;;;;;10.25;7.20;;;11.30;99.90;;;;;;4772149;30;20055;-72
2022/04/19 07:30:59;;;;;;;8.52;7.00;;;11.40;99.90;;;;;;4756315;30;20056;-71
2022/04/19 07:33:24;;;;;;;8.85;7.00;;;11.50;99.90;;;;;;4741800;30;20062;-71
2022/04/19 07:35:52;;;;;;;9.80;7.32;;;11.70;99.90;;;;;;4741751;30;20184;-71
2022/04/19 07:38:18;;;;;;;10.77;6.63;;;11.80;99.90;;;;;;4756097;30;20048;-71
2022/04/19 07:40:45;;;;;;;11.20;7.45;;;11.90;99.90;;;;;;4771298;30;20394;-71
2022/04/19 07:43:11;;;;;;;12.77;6.55;;;12.20;99.90;;;;;;4755289;30;20062;-72
2022/04/19 07:53:13;;;;;;;10.48;6.38;;;12.70;99.90;;;;;;4755471;30;20136;-71
2022/04/19 07:55:39;;;;;;;7.85;6.32;;;12.50;99.90;;;;;;4755360;30;20508;-71
2022/04/19 07:58:04;;;;;;;7.38;5.85;;;12.70;99.90;;;;;;4770964;30;20074;-72
2022/04/19 08:00:30;;;;;;;7.40;6.30;;;12.90;99.90;;;;;;4770753;30;20063;-69
2022/04/19 08:02:57;;;;;;;7.20;5.72;;;13.00;99.90;;;;;;4755356;30;20107;-69
2022/04/19 08:05:26;;;;;;;7.75;6.25;;;13.10;99.90;;;;;;4755622;30;20052;-70
2022/04/19 08:07:52;;;;;;;7.75;5.65;;;13.30;99.90;;;;;;4770087;30;20051;-70
2022/04/19 08:10:19;;;;;;;8.05;5.95;;;13.50;99.90;;;;;;4761630;30;20140;-71
2022/04/19 08:12:45;;;;;;;9.30;5.93;;;13.60;99.90;;;;;;4771001;30;20060;-70
2022/04/19 08:15:11;;;;;;;7.85;6.65;;;13.80;99.90;;;;;;4754391;30;20415;-70
2022/04/19 08:17:37;;;;;;;8.80;6.38;;;13.90;99.90;;;;;;4756330;30;20135;-70
2022/04/19 08:20:04;;;;;;;7.68;6.85;;;14.00;98.60;;;;;;4772221;30;20059;-71
2022/04/19 08:22:30;;;;;;;9.57;6.13;;;14.10;97.20;;;;;;4753550;30;20070;-70
2022/04/19 08:24:55;;;;;;;9.02;6.20;;;14.10;96.00;;;;;;4754717;30;20040;-70
2022/04/19 08:27:21;;;;;;;9.85;6.22;;;14.00;96.20;;;;;;4754530;30;20048;-70
2022/04/19 08:29:47;;;;;;;8.63;5.88;;;14.10;96.10;;;;;;4753843;30;20126;-66
2022/04/19 08:32:13;;;;;;;9.80;6.20;;;14.10;94.70;;;;;;4770093;30;20515;-70
2022/04/19 08:34:39;;;;;;;9.73;6.72;;;14.20;92.50;;;;;;4755550;30;20528;-70
2022/04/19 08:37:05;;;;;;;9.18;6.78;;;14.30;91.60;;;;;;4753587;30;20083;-70
2022/04/19 08:39:31;;;;;;;9.98;7.70;;;14.30;92.70;;;;;;4754447;30;20079;-70
2022/04/19 08:41:56;;;;;;;8.05;6.10;;;14.30;95.20;;;;;;4770517;30;20090;-69
2022/04/19 08:44:22;;;;;;;8.57;6.40;;;14.30;93.10;;;;;;4754620;30;20116;-70
2022/04/19 08:46:48;;;;;;;9.70;6.13;;;14.30;91.50;;;;;;4755724;30;20138;-70
2022/04/19 08:49:16;;;;;;;6.10;5.50;;;14.30;90.50;;;;;;4761105;30;20416;-70
2022/04/19 08:51:44;;;;;;;6.65;5.93;;;14.40;87.10;;;;;;4753566;30;20060;-70
2022/04/19 08:59:39;;;;;;;6.78;5.22;;;14.60;81.10;;;;;;4770721;30;20056;-68
2022/04/19 09:02:05;;;;;;;7.95;4.68;;;14.70;80.00;;;;;;4740137;30;20466;-69
2022/04/19 09:04:30;;;;;;;4.82;4.10;;;14.70;76.50;;;;;;4770059;30;20094;-69
2022/04/19 09:06:58;;;;;;;6.72;4.32;;;14.80;74.80;;;;;;4753484;30;20086;-69
2022/04/19 09:09:28;;;;;;;6.88;4.72;;;14.80;72.80;;;;;;4770622;30;20562;-69
2022/04/19 09:12:10;;;;;;;5.45;4.40;;;14.80;71.10;;;;;;4771662;29;20414;-69
2022/04/19 09:14:37;;;;;;;6.65;3.35;;;14.90;69.50;;;;;;4770552;30;20101;-69
2022/04/19 09:17:10;;;;;;;6.40;3.90;;;15.00;68.80;;;;;;4754278;30;20066;-69
2022/04/19 09:19:37;;;;;;;4.50;3.60;;;15.20;67.30;;;;;;4754074;30;20112;-69
2022/04/19 09:22:03;;;;;;;5.45;3.72;;;14.90;66.90;;;;;;4770514;30;20159;-69
2022/04/19 09:24:29;;;;;;;5.57;3.17;;;15.00;66.90;;;;;;4769774;30;20068;-69
2022/04/19 09:26:54;;;;;;;3.13;2.05;;;15.20;65.60;;;;;;4752504;30;20067;-69
2022/04/19 09:29:22;;;;;;;2.72;2.25;;;15.40;62.60;;;;;;4769353;30;20066;-69
2022/04/19 09:31:55;;;;;;;3.92;2.20;;;15.50;60.70;;;;;;4754035;30;20486;-69
2022/04/19 09:34:37;;;;;;;2.97;1.88;;;15.60;58.40;;;;;;4753835;30;20075;-69
2022/04/19 09:37:13;;;;;;;3.65;2.13;;;15.70;56.00;;;;;;4751301;30;20173;-69
2022/04/19 09:39:40;;;;;;;3.33;1.98;;;15.60;54.40;;;;;;4751524;30;20137;-69
2022/04/19 09:42:12;;;;;;;3.53;2.42;;;15.60;55.20;;;;;;4769064;30;20177;-69
2022/04/19 09:44:51;;;;;;;4.53;2.05;;;15.60;54.00;;;;;;4769718;30;20124;-69
2022/04/19 09:47:17;;;;;;;3.33;2.05;;;15.50;54.00;;;;;;4770147;30;20472;-69
2022/04/19 09:49:46;;;;;;;2.58;2.08;;;15.60;54.30;;;;;;4754452;30;20138;-69
2022/04/19 09:52:34;;;;;;;4.18;2.03;;;15.60;53.20;;;;;;4753911;30;20106;-69
2022/04/19 09:55:07;;;;;;;3.75;2.17;;;15.60;53.40;;;;;;4746719;30;20498;-69
2022/04/19 09:57:35;;;;;;;4.60;1.95;;;15.50;52.50;;;;;;4738870;30;20450;-69
2022/04/19 10:00:05;;;;;;;3.40;2.13;;;15.60;52.60;;;;;;4769122;30;20109;-69
2022/04/19 10:08:19;;;;;;;2.72;2.25;;;16.00;52.70;;;;;;4769325;30;20059;-70
2022/04/19 10:10:50;;;;;;;3.28;1.85;;;15.90;52.80;;;;;;4740004;30;20047;-70
2022/04/19 10:13:18;;;;;;;3.72;2.28;;;16.10;52.20;;;;;;4755566;30;20054;-69
2022/04/19 10:15:44;;;;;;;5.32;1.90;;;16.30;52.00;;;;;;4752199;30;20104;-70
2022/04/19 10:18:10;;;;;;;6.03;1.90;;;16.40;51.20;;;;;;4752999;30;20056;-69
2022/04/19 10:20:40;;;;;;;3.55;1.80;;;16.30;50.10;;;;;;4754040;30;20067;-69
2022/04/19 10:23:10;;;;;;;2.03;1.83;;;16.30;50.20;;;;;;4752236;30;20054;-70
2022/04/19 10:25:44;;;;;;;2.00;1.70;;;16.30;50.60;;;;;;4767826;30;20063;-69
2022/04/19 10:28:15;;;;;;;3.63;1.30;;;16.30;49.70;;;;;;4753152;30;20087;-68
2022/04/19 10:30:52;;;;;;;3.83;1.48;;;16.40;49.70;;;;;;4753714;30;20059;-69
2022/04/19 10:33:51;;;;;;;2.17;1.48;;;16.30;48.00;;;;;;4752348;30;20139;-68
2022/04/19 10:36:20;;;;;;;4.50;1.52;;;16.40;47.80;;;;;;4767924;30;20051;-69
2022/04/19 10:39:06;;;;;;;4.63;1.40;;;16.50;49.10;;;;;;4767637;30;20060;-69
2022/04/19 10:41:52;;;;;;;1.92;1.42;;;16.50;49.10;;;;;;4768538;30;20138;-69
2022/04/19 10:44:26;;;;;;;1.70;1.60;;;16.60;48.40;;;;;;4769618;30;20075;-69
2022/04/19 10:47:16;;;;;;;1.75;1.35;;;16.70;49.50;;;;;;4752974;30;20059;-69
2022/04/19 10:50:07;;;;;;;2.13;1.92;;;16.80;50.30;;;;;;4769848;30;20064;-69
2022/04/19 10:52:43;;;;;;;2.60;1.70;;;16.90;50.20;;;;;;4769451;30;20385;-69
2022/04/19 10:55:10;;;;;;;2.20;2.00;;;17.00;49.70;;;;;;4768533;30;20060;-69
2022/04/19 11:00:34;;;;;;;3.25;1.67;;;17.00;50.60;;;;;;4766713;30;20055;-68
2022/04/19 11:03:07;;;;;;;1.92;1.52;;;17.10;50.60;;;;;;4753299;30;20068;-68
2022/04/19 11:05:44;;;;;;;3.90;2.30;;;17.10;50.70;;;;;;4753111;30;20059;-68
2022/04/19 11:08:24;;;;;;;3.28;1.77;;;17.10;49.50;;;;;;4769209;30;20056;-68
2022/04/19 11:10:56;;;;;;;1.60;1.50;;;17.10;49.40;;;;;;4754375;30;20189;-68
2022/04/19 11:13:23;;;;;;;2.60;1.80;;;17.10;49.00;;;;;;4768208;30;20062;-68
2022/04/19 11:16:05;;;;;;;2.50;1.40;;;17.00;49.60;;;;;;4769023;30;20055;-68
2022/04/19 11:18:57;;;;;;;3.38;1.83;;;17.10;50.40;;;;;;4769388;30;20082;-68
2022/04/19 11:21:47;;;;;;;2.08;1.63;;;17.20;50.40;;;;;;4769126;30;20517;-68
2022/04/19 11:24:13;;;;;;;4.00;2.00;;;17.30;50.30;;;;;;4752869;30;20194;-69
2022/04/19 11:26:42;;;;;;;3.40;2.00;;;17.30;50.30;;;;;;4753119;30;20139;-69
2022/04/19 11:29:17;;;;;;;1.92;1.73;;;17.30;49.90;;;;;;4768529;30;20105;-68
2022/04/19 11:31:43;;;;;;;6.82;1.95;;;17.30;50.50;;;;;;4768996;30;20055;-68
2022/04/19 11:34:16;;;;;;;2.03;1.83;;;17.30;50.50;;;;;;4754336;30;20056;-68
2022/04/19 11:36:43;;;;;;;2.65;2.25;;;17.40;50.90;;;;;;4755551;30;20111;-69
2022/04/19 11:46:43;;;;;;;3.25;2.17;;;17.30;50.70;;;;;;4741060;30;20104;-69
2022/04/19 11:47:45;;;;;;;3.20;2.50;;;17.30;50.90;;;;;;4756197;30;20067;-69
2022/04/19 11:50:29;;;;;;;2.35;2.05;;;17.40;51.50;;;;;;4756775;30;20060;-69
2022/04/19 11:52:55;;;;;;;2.05;1.77;;;17.50;51.20;;;;;;4770528;30;20520;-68
2022/04/19 11:55:24;;;;;;;4.07;1.63;;;17.60;50.50;;;;;;4764961;30;20063;-69
2022/04/19 11:58:09;;;;;;;5.05;1.95;;;17.50;50.30;;;;;;4756876;30;20500;-69
2022/04/19 12:00:35;;;;;;;5.85;2.00;;;17.50;51.30;;;;;;4770575;30;20575;-68
2022/04/19 12:03:21;;;;;;;2.90;1.95;;;17.70;51.10;;;;;;4771945;30;20102;-69
2022/04/19 12:05:47;;;;;;;2.35;2.13;;;17.70;50.50;;;;;;4772182;30;20059;-69
2022/04/19 12:08:13;;;;;;;2.50;1.90;;;17.60;50.30;;;;;;4770949;30;20486;-68
2022/04/19 12:10:39;;;;;;;3.55;2.00;;;17.60;50.40;;;;;;4770223;30;20051;-68
2022/04/19 12:13:04;;;;;;;6.00;1.90;;;17.70;50.30;;;;;;4767479;30;20084;-69
2022/04/19 12:16:12;;;;;;;2.92;2.30;;;17.80;50.10;;;;;;4764051;30;20067;-70
2022/04/19 12:19:10;;;;;;;6.13;2.30;;;17.70;49.80;;;;;;4741310;30;20067;-71
2022/04/19 12:26:06;;;;;;;3.03;2.08;;;17.60;49.80;;;;;;4770437;30;20059;-70
2022/04/19 12:29:22;;;;;;;3.08;2.13;;;17.60;50.30;;;;;;4749379;30;20044;-69
2022/04/19 13:01:25;;;;;;;4.68;2.72;;;17.70;49.90;;;;;;4788752;30;20511;-71
2022/04/19 13:03:52;;;;;;;2.90;2.60;;;17.90;49.80;;;;;;4787598;29;20051;-70
2022/04/19 13:14:31;;;;;;;3.03;2.20;;;18.20;49.30;;;;;;4786112;29;20051;-69
2022/04/19 13:17:22;;;;;;;3.95;2.38;;;18.30;49.00;;;;;;4786505;29;20491;-70
2022/04/19 13:19:48;;;;;;;3.95;2.10;;;18.20;48.40;;;;;;4788811;30;20059;-69
2022/04/19 13:22:14;;;;;;;5.28;2.20;;;18.20;48.90;;;;;;4772585;30;20059;-69
2022/04/19 13:24:41;;;;;;;4.00;2.28;;;18.30;49.10;;;;;;4772301;30;20095;-70
2022/04/19 13:35:19;;;;;;;2.45;2.25;;;18.30;48.60;;;;;;4770307;30;20501;-70
2022/04/19 13:41:36;;;;;;;7.07;2.58;;;18.10;48.90;;;;;;4782169;29;20085;-69
2022/04/19 13:44:27;;;;;;;6.57;2.40;;;18.00;48.90;;;;;;4770563;30;20500;-69
2022/04/19 13:47:09;;;;;;;4.97;2.88;;;18.00;49.70;;;;;;4773048;29;20088;-69
2022/04/19 13:49:36;;;;;;;5.65;2.60;;;18.00;50.10;;;;;;4767848;30;20059;-68
2022/04/19 13:52:02;;;;;;;2.30;2.08;;;18.10;49.70;;;;;;4770381;30;20047;-69
2022/04/19 13:54:27;;;;;;;4.18;2.00;;;18.20;49.80;;;;;;4756472;30;20074;-69
2022/04/19 13:57:44;;;;;;;3.88;2.17;;;18.20;49.60;;;;;;4771341;29;20404;-69
2022/04/19 14:04:45;;;;;;;2.80;1.70;;;18.20;48.50;;;;;;4769722;30;20562;-71
2022/04/19 14:25:13;;;;;;;3.72;2.13;;;17.90;49.80;;;;;;4786250;29;20130;-69
2022/04/19 14:27:39;;;;;;;2.58;1.80;;;17.90;49.60;;;;;;4785222;29;20461;-69
2022/04/19 14:35:34;;;;;;;2.35;2.15;;;18.00;49.00;;;;;;4787449;30;20103;-70
2022/04/19 14:38:00;;;;;;;2.75;2.15;;;18.00;49.30;;;;;;4770947;30;20051;-70
2022/04/19 14:40:27;;;;;;;5.30;2.40;;;18.00;49.20;;;;;;4786886;29;20047;-69
2022/04/19 14:42:53;;;;;;;3.13;2.55;;;18.10;48.90;;;;;;4770639;30;20103;-68
2022/04/19 14:45:30;;;;;;;3.08;2.10;;;18.10;49.10;;;;;;4769383;30;20062;-68
2022/04/19 14:47:57;;;;;;;3.58;2.70;;;18.20;49.40;;;;;;4784770;29;20408;-68
2022/04/19 14:50:23;;;;;;;4.45;3.22;;;18.10;49.10;;;;;;4782874;30;20072;-69
2022/04/19 14:52:50;;;;;;;3.53;2.78;;;18.10;49.40;;;;;;4767042;29;20063;-68
2022/04/19 14:55:42;;;;;;;4.25;2.97;;;18.00;49.00;;;;;;4765708;30;20059;-69
2022/04/19 14:58:08;;;;;;;2.60;2.22;;;18.00;49.50;;;;;;4784381;29;20063;-69
2022/04/19 15:00:40;;;;;;;2.80;2.50;;;18.00;49.50;;;;;;4770673;30;20462;-69
2022/04/19 15:03:06;;;;;;;;;;;18.10;49.50;;;;;;4770911;29;20151;-70
2022/04/19 15:05:31;;;;;;;4.13;2.65;;;18.00;49.00;;;;;;4782314;30;19970;-70
2022/04/19 15:07:57;;;;;;;2.70;2.50;;;18.00;49.50;;;;;;4784249;29;20076;-70
2022/04/19 15:10:23;;;;;;;3.33;2.17;;;18.00;49.30;;;;;;4774447;30;20058;-70
2022/04/19 15:12:52;;;;;;;5.07;2.25;;;18.00;49.00;;;;;;4773689;30;20051;-70